createdAt,value
2018-10-01T00:00:16.609Z,0.00
2018-10-01T00:01:16.584Z,0.00
2018-10-01T00:02:16.551Z,0.00
2018-10-01T00:03:16.563Z,0.00
2018-10-01T00:04:16.507Z,0.00
2018-10-01T00:05:16.481Z,0.00
2018-10-01T00:06:16.450Z,0.00
2018-10-01T00:07:16.418Z,0.00
2018-10-01T00:08:16.462Z,0.00
2018-10-01T00:09:16.368Z,0.00
2018-10-01T00:10:16.336Z,0.00
2018-10-01T00:11:16.311Z,0.00
2018-10-01T00:12:16.291Z,0.00
2018-10-01T00:13:16.259Z,0.00
2018-10-01T00:14:16.233Z,0.00
2018-10-01T00:15:16.205Z,0.00
2018-10-01T00:16:16.177Z,0.00
2018-10-01T00:17:16.150Z,0.00
2018-10-01T00:18:16.124Z,0.00
2018-10-01T00:19:16.109Z,0.00
2018-10-01T00:20:16.077Z,0.00
2018-10-01T00:21:16.039Z,0.00
2018-10-01T00:22:16.006Z,0.00
2018-10-01T00:23:15.997Z,0.00
2018-10-01T00:24:15.964Z,0.00
2018-10-01T00:25:15.930Z,0.00
2018-10-01T00:26:15.909Z,0.00
2018-10-01T00:27:15.877Z,0.00
2018-10-01T00:28:15.847Z,0.00
2018-10-01T00:29:15.836Z,0.00
2018-10-01T00:30:15.792Z,0.00
2018-10-01T00:31:15.765Z,0.00
2018-10-01T00:32:15.757Z,0.00
2018-10-01T00:33:15.716Z,0.00
2018-10-01T00:34:15.687Z,0.00
2018-10-01T00:35:15.670Z,0.00
2018-10-01T00:36:15.638Z,0.00
2018-10-01T00:37:15.615Z,0.00
2018-10-01T00:38:15.628Z,0.00
2018-10-01T00:39:15.555Z,0.00
2018-10-01T00:40:15.582Z,0.00
2018-10-01T00:41:15.498Z,0.00
2018-10-01T00:42:15.477Z,0.00
2018-10-01T00:43:15.468Z,0.00
2018-10-01T00:44:15.421Z,0.00
2018-10-01T00:45:15.398Z,0.00
2018-10-01T00:46:15.367Z,0.00
2018-10-01T00:47:15.351Z,0.00
2018-10-01T00:48:15.314Z,0.00
2018-10-01T00:49:15.284Z,0.00
2018-10-01T00:50:15.260Z,0.00
2018-10-01T00:51:15.229Z,0.00
2018-10-01T00:52:15.203Z,0.00
2018-10-01T00:53:16.222Z,0.00
2018-10-01T00:54:15.144Z,0.00
2018-10-01T00:55:19.821Z,0.00
2018-10-01T00:56:15.094Z,0.00
2018-10-01T00:57:15.075Z,0.00
2018-10-01T00:58:15.034Z,0.00
2018-10-01T00:59:15.024Z,0.00
2018-10-01T01:00:15.193Z,0.00
2018-10-01T01:01:15.026Z,0.00
2018-10-01T01:02:14.933Z,0.00
2018-10-01T01:03:14.934Z,0.00
2018-10-01T01:04:14.872Z,0.00
2018-10-01T01:05:14.848Z,0.00
2018-10-01T01:06:14.819Z,0.00
2018-10-01T01:07:14.792Z,0.00
2018-10-01T01:08:14.762Z,0.00
2018-10-01T01:09:14.743Z,0.00
2018-10-01T01:10:14.722Z,0.00
2018-10-01T01:11:14.691Z,0.00
2018-10-01T01:12:14.692Z,0.00
2018-10-01T01:13:14.637Z,0.00
2018-10-01T01:14:14.601Z,0.00
2018-10-01T01:15:14.585Z,0.00
2018-10-01T01:16:14.555Z,0.00
2018-10-01T01:17:14.523Z,0.00
2018-10-01T01:18:14.531Z,0.00
2018-10-01T01:19:14.474Z,0.00
2018-10-01T01:20:14.551Z,0.00
2018-10-01T01:21:14.422Z,0.00
2018-10-01T01:22:14.455Z,0.00
2018-10-01T01:23:14.361Z,0.00
2018-10-01T01:24:14.377Z,0.00
2018-10-01T01:25:14.308Z,0.00
2018-10-01T01:26:14.278Z,0.00
2018-10-01T01:27:14.257Z,0.00
2018-10-01T01:28:14.228Z,0.00
2018-10-01T01:29:14.211Z,0.00
2018-10-01T01:30:14.169Z,0.00
2018-10-01T01:31:14.141Z,0.00
2018-10-01T01:32:14.117Z,0.00
2018-10-01T01:33:14.104Z,0.00
2018-10-01T01:34:14.056Z,0.00
2018-10-01T01:35:14.034Z,0.00
2018-10-01T01:36:14.009Z,0.00
2018-10-01T01:37:13.982Z,0.00
2018-10-01T01:38:13.956Z,0.00
2018-10-01T01:39:13.930Z,0.00
2018-10-01T01:40:13.893Z,0.00
2018-10-01T01:41:13.875Z,0.00
2018-10-01T01:42:13.837Z,0.00
2018-10-01T01:43:13.811Z,0.00
2018-10-01T01:44:13.783Z,0.00
2018-10-01T01:45:13.762Z,0.00
2018-10-01T01:46:13.727Z,0.00
2018-10-01T01:47:13.726Z,0.00
2018-10-01T01:48:13.677Z,0.00
2018-10-01T01:49:13.652Z,0.00
2018-10-01T01:50:13.626Z,0.00
2018-10-01T01:51:13.595Z,0.00
2018-10-01T01:52:13.565Z,0.00
2018-10-01T01:53:13.539Z,0.00
2018-10-01T01:54:13.516Z,0.00
2018-10-01T01:55:13.480Z,0.00
2018-10-01T01:56:13.455Z,0.00
2018-10-01T01:57:13.435Z,0.00
2018-10-01T01:58:13.396Z,0.00
2018-10-01T01:59:13.381Z,0.00
2018-10-01T02:00:13.354Z,0.00
2018-10-01T02:01:13.317Z,0.00
2018-10-01T02:02:13.292Z,0.00
2018-10-01T02:03:13.271Z,0.00
2018-10-01T02:04:13.245Z,0.00
2018-10-01T02:05:13.212Z,0.00
2018-10-01T02:06:13.193Z,0.00
2018-10-01T02:07:13.201Z,0.00
2018-10-01T02:08:13.133Z,0.00
2018-10-01T02:09:13.102Z,0.00
2018-10-01T02:10:13.069Z,0.00
2018-10-01T02:11:13.056Z,0.00
2018-10-01T02:12:13.031Z,0.00
2018-10-01T02:13:12.992Z,0.00
2018-10-01T02:14:12.973Z,0.00
2018-10-01T02:15:12.949Z,0.00
2018-10-01T02:16:12.917Z,0.00
2018-10-01T02:17:12.890Z,0.00
2018-10-01T02:18:12.863Z,0.00
2018-10-01T02:19:12.845Z,0.00
2018-10-01T02:20:12.808Z,0.00
2018-10-01T02:21:12.789Z,0.00
2018-10-01T02:22:12.743Z,0.00
2018-10-01T02:23:12.723Z,0.00
2018-10-01T02:24:12.707Z,0.00
2018-10-01T02:25:12.685Z,0.00
2018-10-01T02:26:12.657Z,0.00
2018-10-01T02:27:12.632Z,0.00
2018-10-01T02:28:12.599Z,0.00
2018-10-01T02:29:12.562Z,0.00
2018-10-01T02:30:12.530Z,0.00
2018-10-01T02:31:12.513Z,0.00
2018-10-01T02:32:12.497Z,0.00
2018-10-01T02:33:12.450Z,0.00
2018-10-01T02:34:12.439Z,0.00
2018-10-01T02:35:12.426Z,0.00
2018-10-01T02:36:12.372Z,0.00
2018-10-01T02:37:12.388Z,0.00
2018-10-01T02:38:12.313Z,0.00
2018-10-01T02:39:12.313Z,0.00
2018-10-01T02:40:12.268Z,0.00
2018-10-01T02:41:12.233Z,0.00
2018-10-01T02:42:12.207Z,0.00
2018-10-01T02:43:12.188Z,0.00
2018-10-01T02:44:12.154Z,0.00
2018-10-01T02:45:12.125Z,0.00
2018-10-01T02:46:12.108Z,0.00
2018-10-01T02:47:12.066Z,0.00
2018-10-01T02:48:12.046Z,0.00
2018-10-01T02:49:12.020Z,0.00
2018-10-01T02:50:11.982Z,0.00
2018-10-01T02:51:11.963Z,0.00
2018-10-01T02:52:11.978Z,0.00
2018-10-01T02:53:11.905Z,0.00
2018-10-01T02:54:11.994Z,0.00
2018-10-01T02:55:11.849Z,0.00
2018-10-01T02:56:11.903Z,0.00
2018-10-01T02:57:11.802Z,0.00
2018-10-01T02:58:11.823Z,0.00
2018-10-01T02:59:11.754Z,0.00
2018-10-01T03:00:11.829Z,0.00
2018-10-01T03:01:11.701Z,0.00
2018-10-01T03:02:11.655Z,0.00
2018-10-01T03:03:11.629Z,0.00
2018-10-01T03:04:11.609Z,0.00
2018-10-01T03:05:11.599Z,0.00
2018-10-01T03:06:11.548Z,0.00
2018-10-01T03:07:11.618Z,0.00
2018-10-01T03:08:11.497Z,0.00
2018-10-01T03:09:12.507Z,0.00
2018-10-01T03:10:11.438Z,0.00
2018-10-01T03:11:11.449Z,0.00
2018-10-01T03:12:11.435Z,0.00
2018-10-01T03:13:11.477Z,0.00
2018-10-01T03:14:11.389Z,0.00
2018-10-01T03:15:11.497Z,0.00
2018-10-01T03:16:11.404Z,0.00
2018-10-01T03:17:11.290Z,0.00
2018-10-01T03:18:11.241Z,0.00
2018-10-01T03:19:11.463Z,0.00
2018-10-01T03:20:11.171Z,0.00
2018-10-01T03:21:11.261Z,0.00
2018-10-01T03:22:11.124Z,0.00
2018-10-01T03:23:11.131Z,0.00
2018-10-01T03:24:11.058Z,0.00
2018-10-01T03:25:11.141Z,0.00
2018-10-01T03:26:11.001Z,0.00
2018-10-01T03:27:10.991Z,0.00
2018-10-01T03:28:10.956Z,0.00
2018-10-01T03:29:10.925Z,0.00
2018-10-01T03:30:10.933Z,0.00
2018-10-01T03:31:10.874Z,0.00
2018-10-01T03:32:10.842Z,0.00
2018-10-01T03:33:10.824Z,0.00
2018-10-01T03:34:10.793Z,0.00
2018-10-01T03:35:10.797Z,0.00
2018-10-01T03:36:10.730Z,0.00
2018-10-01T03:37:10.716Z,0.00
2018-10-01T03:38:10.679Z,0.00
2018-10-01T03:39:10.659Z,0.00
2018-10-01T03:40:10.684Z,0.00
2018-10-01T03:41:10.597Z,0.00
2018-10-01T03:42:10.576Z,0.00
2018-10-01T03:43:10.556Z,0.00
2018-10-01T03:44:10.524Z,0.00
2018-10-01T03:45:10.495Z,0.00
2018-10-01T03:46:10.471Z,0.00
2018-10-01T03:47:10.433Z,0.00
2018-10-01T03:48:10.412Z,0.00
2018-10-01T03:49:10.393Z,0.00
2018-10-01T03:50:10.353Z,0.00
2018-10-01T03:51:10.332Z,0.00
2018-10-01T03:52:10.308Z,0.00
2018-10-01T03:53:10.307Z,0.00
2018-10-01T03:54:10.268Z,0.00
2018-10-01T03:55:10.217Z,0.00
2018-10-01T03:56:10.189Z,0.00
2018-10-01T03:57:10.178Z,0.00
2018-10-01T03:58:10.140Z,0.00
2018-10-01T03:59:10.117Z,0.00
2018-10-01T04:00:10.087Z,0.00
2018-10-01T04:01:10.056Z,0.00
2018-10-01T04:02:10.034Z,0.00
2018-10-01T04:03:10.070Z,0.00
2018-10-01T04:04:09.981Z,0.00
2018-10-01T04:05:09.974Z,0.00
2018-10-01T04:06:09.936Z,0.00
2018-10-01T04:07:09.893Z,0.00
2018-10-01T04:08:09.886Z,0.00
2018-10-01T04:09:09.894Z,0.00
2018-10-01T04:10:09.820Z,0.00
2018-10-01T04:11:09.806Z,0.00
2018-10-01T04:12:09.773Z,0.00
2018-10-01T04:13:09.737Z,0.00
2018-10-01T04:14:09.708Z,0.00
2018-10-01T04:15:09.688Z,0.00
2018-10-01T04:16:09.739Z,0.00
2018-10-01T04:17:09.625Z,0.00
2018-10-01T04:18:09.650Z,0.00
2018-10-01T04:19:09.601Z,0.00
2018-10-01T04:20:09.561Z,0.00
2018-10-01T04:21:09.519Z,0.00
2018-10-01T04:22:09.577Z,0.00
2018-10-01T04:23:09.474Z,0.00
2018-10-01T04:24:09.445Z,0.00
2018-10-01T04:25:09.405Z,0.00
2018-10-01T04:26:09.392Z,0.00
2018-10-01T04:27:09.359Z,0.00
2018-10-01T04:28:09.332Z,0.00
2018-10-01T04:29:09.301Z,0.00
2018-10-01T04:30:09.287Z,0.00
2018-10-01T04:31:09.261Z,0.00
2018-10-01T04:32:09.238Z,0.00
2018-10-01T04:33:09.192Z,0.00
2018-10-01T04:34:09.178Z,0.00
2018-10-01T04:35:09.219Z,0.00
2018-10-01T04:36:09.125Z,0.00
2018-10-01T04:37:09.089Z,0.00
2018-10-01T04:38:09.078Z,0.00
2018-10-01T04:39:09.028Z,0.00
2018-10-01T04:40:09.014Z,0.00
2018-10-01T04:41:08.985Z,0.00
2018-10-01T04:42:08.954Z,0.00
2018-10-01T04:43:08.925Z,0.00
2018-10-01T04:44:08.891Z,0.00
2018-10-01T04:45:08.870Z,0.00
2018-10-01T04:46:08.836Z,0.00
2018-10-01T04:47:08.809Z,0.00
2018-10-01T04:48:08.790Z,0.00
2018-10-01T04:49:08.775Z,0.00
2018-10-01T04:50:08.732Z,0.00
2018-10-01T04:51:08.725Z,0.00
2018-10-01T04:52:08.696Z,0.00
2018-10-01T04:53:08.659Z,0.00
2018-10-01T04:54:08.640Z,0.00
2018-10-01T04:55:08.668Z,0.00
2018-10-01T04:56:08.581Z,0.00
2018-10-01T04:57:08.560Z,0.00
2018-10-01T04:58:08.603Z,0.00
2018-10-01T04:59:08.497Z,0.00
2018-10-01T05:00:08.463Z,0.00
2018-10-01T05:01:08.447Z,0.00
2018-10-01T05:02:08.415Z,0.00
2018-10-01T05:03:08.385Z,4.00
2018-10-01T05:04:08.364Z,4.00
2018-10-01T05:05:08.330Z,0.00
2018-10-01T05:06:08.361Z,4.00
2018-10-01T05:07:08.281Z,4.00
2018-10-01T05:08:08.255Z,0.00
2018-10-01T05:09:08.224Z,4.00
2018-10-01T05:10:08.214Z,4.00
2018-10-01T05:11:08.208Z,8.00
2018-10-01T05:12:08.152Z,8.00
2018-10-01T05:13:08.121Z,8.00
2018-10-01T05:14:08.098Z,8.00
2018-10-01T05:15:08.073Z,12.00
2018-10-01T05:16:09.255Z,16.00
2018-10-01T05:17:08.015Z,12.00
2018-10-01T05:18:08.048Z,20.00
2018-10-01T05:19:07.956Z,24.00
2018-10-01T05:20:07.974Z,24.00
2018-10-01T05:21:07.907Z,28.00
2018-10-01T05:22:07.889Z,28.00
2018-10-01T05:23:07.880Z,32.00
2018-10-01T05:24:07.826Z,36.00
2018-10-01T05:25:07.805Z,40.00
2018-10-01T05:26:07.796Z,48.00
2018-10-01T05:27:07.795Z,48.00
2018-10-01T05:28:07.722Z,56.00
2018-10-01T05:29:07.690Z,60.00
2018-10-01T05:30:07.670Z,64.00
2018-10-01T05:31:08.772Z,68.00
2018-10-01T05:32:07.611Z,72.00
2018-10-01T05:33:07.667Z,80.00
2018-10-01T05:34:07.593Z,84.00
2018-10-01T05:35:07.560Z,96.00
2018-10-01T05:36:07.510Z,100.00
2018-10-01T05:37:07.481Z,108.00
2018-10-01T05:38:07.465Z,116.00
2018-10-01T05:39:07.423Z,128.00
2018-10-01T05:40:07.412Z,132.00
2018-10-01T05:41:07.374Z,136.00
2018-10-01T05:42:07.427Z,140.00
2018-10-01T05:43:07.310Z,144.00
2018-10-01T05:44:07.376Z,156.00
2018-10-01T05:45:07.295Z,168.00
2018-10-01T05:46:07.240Z,184.00
2018-10-01T05:47:07.284Z,200.00
2018-10-01T05:48:07.188Z,208.00
2018-10-01T05:49:07.229Z,224.00
2018-10-01T05:50:07.151Z,232.00
2018-10-01T05:51:07.210Z,240.00
2018-10-01T05:52:07.098Z,248.00
2018-10-01T05:53:07.052Z,252.00
2018-10-01T05:54:07.034Z,248.00
2018-10-01T05:55:07.008Z,252.00
2018-10-01T05:56:06.969Z,256.00
2018-10-01T05:57:06.947Z,268.00
2018-10-01T05:58:06.930Z,272.00
2018-10-01T05:59:06.898Z,280.00
2018-10-01T06:00:06.876Z,288.00
2018-10-01T06:01:06.834Z,296.00
2018-10-01T06:02:06.810Z,304.00
2018-10-01T06:03:06.775Z,312.00
2018-10-01T06:04:06.747Z,320.00
2018-10-01T06:05:06.729Z,332.00
2018-10-01T06:06:06.696Z,344.00
2018-10-01T06:07:06.679Z,364.00
2018-10-01T06:08:06.646Z,384.00
2018-10-01T06:09:06.645Z,412.00
2018-10-01T06:10:06.704Z,424.00
2018-10-01T06:11:06.573Z,428.00
2018-10-01T06:12:06.544Z,428.00
2018-10-01T06:13:06.579Z,416.00
2018-10-01T06:14:06.501Z,412.00
2018-10-01T06:15:06.619Z,412.00
2018-10-01T06:16:06.435Z,416.00
2018-10-01T06:17:13.369Z,424.00
2018-10-01T06:18:06.404Z,428.00
2018-10-01T06:19:06.417Z,436.00
2018-10-01T06:20:06.332Z,448.00
2018-10-01T06:21:06.338Z,460.00
2018-10-01T06:22:06.289Z,464.00
2018-10-01T06:23:12.901Z,476.00
2018-10-01T06:24:06.223Z,496.00
2018-10-01T06:25:17.998Z,508.00
2018-10-01T06:26:06.225Z,520.00
2018-10-01T06:27:06.264Z,536.00
2018-10-01T06:28:06.121Z,564.00
2018-10-01T06:29:06.114Z,592.00
2018-10-01T06:30:06.081Z,616.00
2018-10-01T06:31:06.046Z,632.00
2018-10-01T06:32:06.030Z,644.00
2018-10-01T06:33:05.995Z,664.00
2018-10-01T06:34:05.967Z,692.00
2018-10-01T06:35:05.937Z,716.00
2018-10-01T06:36:05.968Z,688.00
2018-10-01T06:37:05.884Z,688.00
2018-10-01T06:38:05.883Z,704.00
2018-10-01T06:39:05.828Z,732.00
2018-10-01T06:40:05.801Z,740.00
2018-10-01T06:41:05.775Z,748.00
2018-10-01T06:42:05.808Z,760.00
2018-10-01T06:43:05.724Z,768.00
2018-10-01T06:44:05.700Z,784.00
2018-10-01T06:45:05.673Z,796.00
2018-10-01T06:46:09.741Z,808.00
2018-10-01T06:47:05.617Z,820.00
2018-10-01T06:48:05.703Z,820.00
2018-10-01T06:49:05.569Z,832.00
2018-10-01T06:50:10.486Z,848.00
2018-10-01T06:51:05.545Z,856.00
2018-10-01T06:52:26.645Z,880.00
2018-10-01T06:53:05.623Z,912.00
2018-10-01T06:54:26.484Z,964.00
2018-10-01T06:55:05.420Z,956.00
2018-10-01T06:56:18.396Z,912.00
2018-10-01T06:57:05.353Z,896.00
2018-10-01T07:16:15.351Z,1228.00
2018-10-01T07:17:15.251Z,1088.00
2018-10-01T07:18:15.136Z,920.00
2018-10-01T07:19:15.095Z,856.00
2018-10-01T07:20:15.086Z,840.00
2018-10-01T07:21:15.091Z,828.00
2018-10-01T07:22:15.015Z,828.00
2018-10-01T07:23:15.202Z,804.00
2018-10-01T07:24:14.978Z,808.00
2018-10-01T07:25:14.947Z,832.00
2018-10-01T07:26:14.906Z,852.00
2018-10-01T07:27:14.880Z,884.00
2018-10-01T07:28:14.920Z,928.00
2018-10-01T07:29:14.830Z,944.00
2018-10-01T07:30:14.801Z,916.00
2018-10-01T07:31:14.837Z,948.00
2018-10-01T07:32:14.758Z,956.00
2018-10-01T07:33:14.711Z,964.00
2018-10-01T07:34:14.702Z,960.00
2018-10-01T07:35:14.658Z,968.00
2018-10-01T07:36:14.650Z,972.00
2018-10-01T07:37:14.666Z,976.00
2018-10-01T07:38:14.578Z,976.00
2018-10-01T07:39:14.556Z,976.00
2018-10-01T07:40:14.535Z,980.00
2018-10-01T07:41:14.500Z,980.00
2018-10-01T07:42:14.476Z,980.00
2018-10-01T07:43:14.437Z,984.00
2018-10-01T07:44:14.407Z,984.00
2018-10-01T07:45:14.513Z,984.00
2018-10-01T07:46:14.534Z,988.00
2018-10-01T07:47:14.327Z,992.00
2018-10-01T07:48:14.300Z,992.00
2018-10-01T07:49:14.280Z,996.00
2018-10-01T07:50:14.246Z,996.00
2018-10-01T07:51:15.277Z,1000.00
2018-10-01T07:52:14.197Z,1004.00
2018-10-01T07:53:14.275Z,1008.00
2018-10-01T07:54:14.130Z,1012.00
2018-10-01T07:55:14.101Z,1012.00
2018-10-01T07:56:14.082Z,1016.00
2018-10-01T07:57:14.144Z,1024.00
2018-10-01T07:58:14.029Z,1020.00
2018-10-01T07:59:14.032Z,1024.00
2018-10-01T08:00:14.091Z,1024.00
2018-10-01T08:01:13.947Z,1032.00
2018-10-01T08:02:14.151Z,1032.00
2018-10-01T08:03:13.900Z,1036.00
2018-10-01T08:04:13.852Z,1040.00
2018-10-01T08:05:13.835Z,1040.00
2018-10-01T08:06:13.806Z,1048.00
2018-10-01T08:07:13.781Z,1048.00
2018-10-01T08:08:13.790Z,1052.00
2018-10-01T08:09:13.794Z,1056.00
2018-10-01T08:10:13.699Z,1064.00
2018-10-01T08:11:13.675Z,1060.00
2018-10-01T08:12:13.674Z,1064.00
2018-10-01T08:13:13.620Z,1068.00
2018-10-01T08:14:13.641Z,1068.00
2018-10-01T08:15:18.320Z,1076.00
2018-10-01T08:16:13.540Z,1076.00
2018-10-01T08:17:28.349Z,1080.00
2018-10-01T08:18:13.509Z,1080.00
2018-10-01T08:19:15.563Z,1080.00
2018-10-01T08:20:13.491Z,1084.00
2018-10-01T08:21:14.546Z,1084.00
2018-10-01T08:22:13.396Z,1080.00
2018-10-01T08:23:14.466Z,1092.00
2018-10-01T08:24:13.333Z,1092.00
2018-10-01T08:25:13.306Z,1100.00
2018-10-01T08:26:13.373Z,1100.00
2018-10-01T08:27:13.367Z,1100.00
2018-10-01T08:28:13.224Z,1100.00
2018-10-01T08:29:13.209Z,1100.00
2018-10-01T08:30:13.169Z,1104.00
2018-10-01T08:31:13.189Z,1104.00
2018-10-01T08:32:13.154Z,1108.00
2018-10-01T08:33:13.124Z,1108.00
2018-10-01T08:34:13.059Z,1112.00
2018-10-01T08:35:13.134Z,1116.00
2018-10-01T08:36:13.120Z,1116.00
2018-10-01T08:37:12.981Z,1116.00
2018-10-01T08:38:13.139Z,1116.00
2018-10-01T08:39:12.916Z,1120.00
2018-10-01T08:40:12.911Z,1124.00
2018-10-01T08:41:15.055Z,1124.00
2018-10-01T08:42:12.889Z,1132.00
2018-10-01T08:43:12.820Z,1136.00
2018-10-01T08:44:18.674Z,1132.00
2018-10-01T08:45:12.765Z,1136.00
2018-10-01T08:46:12.754Z,1140.00
2018-10-01T08:47:12.838Z,1140.00
2018-10-01T08:48:12.688Z,1116.00
2018-10-01T08:49:12.676Z,1152.00
2018-10-01T08:50:13.023Z,1156.00
2018-10-01T08:51:12.601Z,1168.00
2018-10-01T08:52:12.698Z,1196.00
2018-10-01T08:53:13.656Z,1320.00
2018-10-01T08:54:12.517Z,1184.00
2018-10-01T08:55:33.632Z,1192.00
2018-10-01T08:56:12.501Z,1280.00
2018-10-01T08:57:12.447Z,1252.00
2018-10-01T08:58:13.453Z,1248.00
2018-10-01T08:59:12.451Z,1296.00
2018-10-01T09:00:42.343Z,1340.00
2018-10-01T09:01:12.380Z,1408.00
2018-10-01T09:02:12.355Z,1528.00
2018-10-01T09:03:12.358Z,1492.00
2018-10-01T09:04:12.250Z,1680.00
2018-10-01T09:05:24.924Z,2780.00
2018-10-01T09:06:12.200Z,1412.00
2018-10-01T09:07:40.852Z,1772.00
2018-10-01T09:08:12.205Z,1568.00
2018-10-01T09:09:12.116Z,1520.00
2018-10-01T09:10:17.836Z,1588.00
2018-10-01T09:11:12.093Z,2176.00
2018-10-01T09:12:16.822Z,2384.00
2018-10-01T09:13:12.022Z,1408.00
2018-10-01T09:14:24.887Z,1424.00
2018-10-01T09:15:11.957Z,1276.00
2018-10-01T09:16:18.798Z,1260.00
2018-10-01T09:17:11.942Z,1372.00
2018-10-01T09:18:26.795Z,1608.00
2018-10-01T09:19:11.855Z,1788.00
2018-10-01T09:20:23.862Z,1776.00
2018-10-01T09:21:11.843Z,1800.00
2018-10-01T09:22:11.876Z,2084.00
2018-10-01T09:23:11.791Z,2264.00
2018-10-01T09:24:11.787Z,2264.00
2018-10-01T09:25:11.704Z,3208.00
2018-10-01T09:26:11.674Z,4136.00
2018-10-01T09:27:11.642Z,3048.00
2018-10-01T09:28:11.658Z,2176.00
2018-10-01T09:29:11.650Z,3084.00
2018-10-01T09:30:11.632Z,3604.00
2018-10-01T09:31:11.570Z,2336.00
2018-10-01T09:32:11.570Z,1864.00
2018-10-01T09:33:11.488Z,1932.00
2018-10-01T09:34:11.462Z,2744.00
2018-10-01T09:35:11.516Z,3376.00
2018-10-01T09:36:11.452Z,3240.00
2018-10-01T09:37:11.384Z,3796.00
2018-10-01T09:38:11.435Z,4240.00
2018-10-01T09:39:11.321Z,3388.00
2018-10-01T09:40:11.323Z,3088.00
2018-10-01T09:41:11.266Z,3680.00
2018-10-01T09:42:11.307Z,3176.00
2018-10-01T09:43:11.242Z,2436.00
2018-10-01T09:44:11.277Z,2676.00
2018-10-01T09:45:11.162Z,3572.00
2018-10-01T09:46:11.180Z,4576.00
2018-10-01T09:47:11.131Z,4364.00
2018-10-01T09:48:11.094Z,3348.00
2018-10-01T09:49:11.068Z,3048.00
2018-10-01T09:50:11.089Z,3004.00
2018-10-01T09:51:11.018Z,3284.00
2018-10-01T09:52:11.006Z,2736.00
2018-10-01T09:53:11.070Z,2292.00
2018-10-01T09:54:10.932Z,2364.00
2018-10-01T09:55:10.967Z,2768.00
2018-10-01T09:56:10.944Z,2228.00
2018-10-01T09:57:10.852Z,2088.00
2018-10-01T09:58:10.901Z,1936.00
2018-10-01T09:59:10.805Z,1948.00
2018-10-01T10:00:10.820Z,2308.00
2018-10-01T10:01:10.754Z,2240.00
2018-10-01T10:02:11.178Z,2692.00
2018-10-01T10:03:10.705Z,2808.00
2018-10-01T10:04:10.754Z,2884.00
2018-10-01T10:05:10.660Z,3468.00
2018-10-01T10:06:10.769Z,4272.00
2018-10-01T10:07:10.613Z,4624.00
2018-10-01T10:08:10.734Z,5332.00
2018-10-01T10:09:10.587Z,4720.00
2018-10-01T10:10:10.626Z,4704.00
2018-10-01T10:11:10.491Z,4368.00
2018-10-01T10:12:10.580Z,4104.00
2018-10-01T10:13:10.440Z,3496.00
2018-10-01T10:14:10.562Z,3472.00
2018-10-01T10:15:10.394Z,3444.00
2018-10-01T10:16:10.510Z,2796.00
2018-10-01T10:17:10.359Z,2144.00
2018-10-01T10:18:10.434Z,1964.00
2018-10-01T10:19:10.284Z,1876.00
2018-10-01T10:20:10.345Z,1488.00
2018-10-01T10:21:10.229Z,976.00
2018-10-01T10:22:10.245Z,952.00
2018-10-01T10:23:10.183Z,1152.00
2018-10-01T10:24:22.907Z,1436.00
2018-10-01T10:25:10.134Z,1972.00
2018-10-01T10:32:14.137Z,2684.00
2018-10-01T10:54:02.309Z,2444.00
2018-10-01T10:55:02.253Z,2524.00
2018-10-01T11:15:46.954Z,2136.00
2018-10-01T11:16:27.594Z,1736.00
2018-10-01T11:17:27.572Z,1800.00
2018-10-01T11:18:33.431Z,1988.00
2018-10-01T11:19:27.556Z,2392.00
2018-10-01T11:20:27.700Z,2960.00
2018-10-01T11:21:27.535Z,3344.00
2018-10-01T11:22:43.495Z,3096.00
2018-10-01T11:23:27.412Z,2952.00
2018-10-01T11:24:27.367Z,2704.00
2018-10-01T11:25:27.528Z,2432.00
2018-10-01T11:26:27.340Z,2076.00
2018-10-01T11:27:27.333Z,1756.00
2018-10-01T11:28:27.279Z,1676.00
2018-10-01T11:29:27.248Z,1720.00
2018-10-01T11:30:27.266Z,1612.00
2018-10-01T11:31:27.256Z,1888.00
2018-10-01T11:32:27.162Z,1740.00
2018-10-01T11:33:27.138Z,1812.00
2018-10-01T11:34:27.227Z,1756.00
2018-10-01T11:35:27.163Z,1780.00
2018-10-01T11:36:27.087Z,1768.00
2018-10-01T11:37:27.035Z,1692.00
2018-10-01T11:38:27.008Z,1696.00
2018-10-01T11:39:26.995Z,1600.00
2018-10-01T11:40:26.948Z,2108.00
2018-10-01T11:41:26.923Z,2028.00
2018-10-01T11:42:27.235Z,2268.00
2018-10-01T11:43:26.873Z,2380.00
2018-10-01T11:44:28.002Z,2468.00
2018-10-01T11:45:26.873Z,2316.00
2018-10-01T11:46:27.050Z,2420.00
2018-10-01T11:47:26.766Z,2540.00
2018-10-01T11:48:26.758Z,2448.00
2018-10-01T11:49:26.709Z,3220.00
2018-10-01T11:50:26.785Z,3552.00
2018-10-01T11:51:26.711Z,1664.00
2018-10-01T11:52:26.686Z,984.00
2018-10-01T11:53:26.617Z,1100.00
2018-10-01T11:54:26.670Z,1368.00
2018-10-01T11:55:26.563Z,1664.00
2018-10-01T11:56:26.608Z,1620.00
2018-10-01T11:57:26.575Z,1864.00
2018-10-01T11:58:26.550Z,2064.00
2018-10-01T11:59:26.463Z,2424.00
2018-10-01T12:00:26.539Z,2908.00
2018-10-01T12:01:26.406Z,3228.00
2018-10-01T12:02:26.448Z,2716.00
2018-10-01T12:03:26.368Z,2368.00
2018-10-01T12:04:27.381Z,2432.00
2018-10-01T12:05:26.302Z,2536.00
2018-10-01T12:06:26.375Z,2636.00
2018-10-01T12:07:26.248Z,2656.00
2018-10-01T12:08:26.285Z,2624.00
2018-10-01T12:09:26.207Z,2552.00
2018-10-01T12:10:26.230Z,2520.00
2018-10-01T12:11:26.141Z,2620.00
2018-10-01T12:12:26.214Z,3112.00
2018-10-01T12:13:26.103Z,3976.00
2018-10-01T12:14:26.149Z,4712.00
2018-10-01T12:15:26.052Z,4896.00
2018-10-01T12:16:26.031Z,4732.00
2018-10-01T12:17:25.987Z,4508.00
2018-10-01T12:18:26.043Z,4772.00
2018-10-01T12:19:25.939Z,5096.00
2018-10-01T12:20:26.002Z,4920.00
2018-10-01T12:21:25.931Z,3964.00
2018-10-01T12:22:25.973Z,2712.00
2018-10-01T12:23:25.847Z,2212.00
2018-10-01T12:24:25.897Z,2320.00
2018-10-01T12:25:25.779Z,2396.00
2018-10-01T12:26:25.791Z,2304.00
2018-10-01T12:27:25.742Z,2452.00
2018-10-01T12:28:25.691Z,2676.00
2018-10-01T12:29:25.655Z,2740.00
2018-10-01T12:30:25.645Z,2460.00
2018-10-01T12:31:25.611Z,2184.00
2018-10-01T12:32:25.594Z,2024.00
2018-10-01T12:33:25.678Z,1912.00
2018-10-01T12:34:25.531Z,2048.00
2018-10-01T12:35:25.548Z,1992.00
2018-10-01T12:36:25.472Z,1912.00
2018-10-01T12:37:25.559Z,1768.00
2018-10-01T12:38:25.425Z,1688.00
2018-10-01T12:39:25.477Z,1660.00
2018-10-01T12:40:25.367Z,1608.00
2018-10-01T12:41:25.394Z,1580.00
2018-10-01T12:42:25.331Z,1576.00
2018-10-01T12:43:25.396Z,1544.00
2018-10-01T12:44:25.324Z,1540.00
2018-10-01T12:45:25.327Z,1532.00
2018-10-01T12:46:25.218Z,1600.00
2018-10-01T12:47:25.221Z,1672.00
2018-10-01T12:48:25.162Z,1596.00
2018-10-01T12:49:25.278Z,2204.00
2018-10-01T12:50:25.187Z,2048.00
2018-10-01T12:51:25.199Z,1596.00
2018-10-01T12:52:25.048Z,1604.00
2018-10-01T12:53:25.065Z,1624.00
2018-10-01T12:54:25.001Z,1700.00
2018-10-01T12:55:25.067Z,1416.00
2018-10-01T12:56:24.937Z,1800.00
2018-10-01T12:57:25.065Z,1704.00
2018-10-01T12:58:24.894Z,1456.00
2018-10-01T12:59:24.937Z,1460.00
2018-10-01T13:00:24.834Z,1560.00
2018-10-01T13:01:24.811Z,1664.00
2018-10-01T13:02:24.781Z,1676.00
2018-10-01T13:03:24.835Z,1728.00
2018-10-01T13:04:24.742Z,1816.00
2018-10-01T13:05:24.726Z,1968.00
2018-10-01T13:06:24.772Z,2128.00
2018-10-01T13:07:24.743Z,2264.00
2018-10-01T13:08:24.632Z,2364.00
2018-10-01T13:09:24.616Z,2472.00
2018-10-01T13:10:24.585Z,2580.00
2018-10-01T13:11:24.997Z,2656.00
2018-10-01T13:12:24.910Z,2584.00
2018-10-01T13:13:24.618Z,2552.00
2018-10-01T13:14:24.759Z,2676.00
2018-10-01T13:15:24.579Z,2988.00
2018-10-01T13:16:24.441Z,3436.00
2018-10-01T13:17:24.415Z,3912.00
2018-10-01T13:18:24.480Z,4244.00
2018-10-01T13:19:24.342Z,4220.00
2018-10-01T13:20:24.427Z,4068.00
2018-10-01T13:21:24.299Z,3892.00
2018-10-01T13:22:24.347Z,3876.00
2018-10-01T13:23:24.246Z,3876.00
2018-10-01T13:24:24.262Z,4344.00
2018-10-01T13:25:24.204Z,3456.00
2018-10-01T13:26:24.269Z,2828.00
2018-10-01T13:27:24.156Z,1980.00
2018-10-01T13:28:24.171Z,1560.00
2018-10-01T13:29:24.098Z,1504.00
2018-10-01T13:30:24.182Z,1668.00
2018-10-01T13:31:24.027Z,2024.00
2018-10-01T13:32:24.099Z,2516.00
2018-10-01T13:33:24.000Z,2560.00
2018-10-01T13:34:24.006Z,2640.00
2018-10-01T13:35:23.923Z,2544.00
2018-10-01T13:36:23.984Z,2284.00
2018-10-01T13:37:23.870Z,2184.00
2018-10-01T13:38:23.842Z,2492.00
2018-10-01T13:39:23.842Z,2948.00
2018-10-01T13:40:23.796Z,3568.00
2018-10-01T13:41:23.855Z,4380.00
2018-10-01T13:42:23.809Z,4396.00
2018-10-01T13:43:23.763Z,3744.00